createdAt,value
2018-04-10T00:00:16.062Z,29.4
2018-04-10T00:01:17.704Z,29.0
2018-04-10T00:02:19.350Z,28.9
2018-04-10T00:03:21.013Z,32.2
2018-04-10T00:04:22.659Z,25.9
2018-04-10T00:05:24.314Z,28.6
2018-04-10T00:06:25.993Z,24.3
2018-04-10T00:07:27.645Z,27.9
2018-04-10T00:08:29.302Z,32.4
2018-04-10T00:09:30.966Z,27.3
2018-04-10T00:10:32.619Z,28.7
2018-04-10T00:11:34.268Z,28.7
2018-04-10T00:12:35.917Z,25.0
2018-04-10T00:13:37.561Z,28.9
2018-04-10T00:14:39.233Z,26.3
2018-04-10T00:15:40.884Z,28.5
2018-04-10T00:16:42.600Z,26.7
2018-04-10T00:17:44.244Z,32.5
2018-04-10T00:18:45.902Z,35.6
2018-04-10T00:19:47.575Z,31.4
2018-04-10T00:20:49.223Z,32.3
2018-04-10T00:21:50.878Z,31.4
2018-04-10T00:22:52.540Z,33.6
2018-04-10T00:23:54.181Z,30.0
2018-04-10T00:24:55.838Z,32.1
2018-04-10T00:25:57.493Z,31.7
2018-04-10T00:26:59.135Z,29.8
2018-04-10T00:28:00.787Z,33.2
2018-04-10T00:29:02.444Z,36.3
2018-04-10T00:30:04.092Z,30.9
2018-04-10T00:31:05.753Z,33.7
2018-04-10T00:32:07.398Z,32.7
2018-04-10T00:33:09.056Z,30.1
2018-04-10T00:34:10.710Z,34.8
2018-04-10T00:35:12.360Z,32.6
2018-04-10T00:36:14.006Z,29.7
2018-04-10T00:37:15.665Z,30.8
2018-04-10T00:38:17.314Z,31.7
2018-04-10T00:39:18.959Z,26.1
2018-04-10T00:40:20.621Z,29.0
2018-04-10T00:41:22.283Z,28.0
2018-04-10T00:42:23.933Z,32.1
2018-04-10T00:43:25.578Z,30.3
2018-04-10T00:44:27.241Z,32.0
2018-04-10T00:45:28.895Z,26.0
2018-04-10T00:46:30.542Z,32.4
2018-04-10T00:47:32.194Z,34.6
2018-04-10T00:48:33.837Z,30.4
2018-04-10T00:49:35.517Z,31.6
2018-04-10T00:50:37.172Z,31.9
2018-04-10T00:51:38.829Z,30.8
2018-04-10T00:52:40.486Z,32.4
2018-04-10T00:53:42.142Z,31.3
2018-04-10T00:54:43.798Z,29.6
2018-04-10T00:55:45.456Z,27.6
2018-04-10T00:56:47.132Z,27.5
2018-04-10T00:57:48.787Z,33.0
2018-04-10T00:58:50.437Z,31.5
2018-04-10T00:59:52.090Z,31.5
2018-04-10T01:00:53.750Z,32.3
2018-04-10T01:01:55.400Z,32.8
2018-04-10T01:02:57.048Z,35.4
2018-04-10T01:03:58.721Z,32.9
2018-04-10T01:05:00.373Z,33.3
2018-04-10T01:06:02.031Z,29.8
2018-04-10T01:07:03.673Z,32.5
2018-04-10T01:08:05.330Z,34.3
2018-04-10T01:09:06.979Z,30.8
2018-04-10T01:10:08.633Z,28.9
2018-04-10T01:11:10.286Z,31.2
2018-04-10T01:12:11.946Z,35.0
2018-04-10T01:13:13.590Z,31.7
2018-04-10T01:14:15.244Z,33.5
2018-04-10T01:15:16.900Z,38.5
2018-04-10T01:16:18.550Z,34.1
2018-04-10T01:17:20.208Z,30.9
2018-04-10T01:18:21.855Z,31.3
2018-04-10T01:19:23.512Z,30.8
2018-04-10T01:20:25.163Z,28.0
2018-04-10T01:21:26.807Z,30.1
2018-04-10T01:22:28.487Z,30.8
2018-04-10T01:23:30.113Z,30.2
2018-04-10T01:24:31.759Z,34.1
2018-04-10T01:25:33.416Z,29.6
2018-04-10T01:26:35.077Z,30.9
2018-04-10T01:27:36.760Z,35.7
2018-04-10T01:28:38.412Z,30.8
2018-04-10T01:29:40.059Z,32.5
2018-04-10T01:30:41.709Z,35.0
2018-04-10T01:31:43.358Z,26.9
2018-04-10T01:32:45.020Z,27.3
2018-04-10T01:33:46.670Z,32.0
2018-04-10T01:34:48.323Z,37.6
2018-04-10T01:35:50.015Z,32.1
2018-04-10T01:36:51.678Z,33.9
2018-04-10T01:37:53.323Z,37.9
2018-04-10T01:38:54.970Z,31.8
2018-04-10T01:39:56.613Z,30.4
2018-04-10T01:40:58.265Z,27.9
2018-04-10T01:41:59.919Z,30.0
2018-04-10T01:43:01.572Z,32.3
2018-04-10T01:44:03.230Z,29.0
2018-04-10T01:45:04.878Z,27.7
2018-04-10T01:46:06.525Z,30.1
2018-04-10T01:47:08.170Z,30.5
2018-04-10T01:48:09.826Z,27.2
2018-04-10T01:49:11.481Z,26.3
2018-04-10T01:50:13.129Z,28.9
2018-04-10T01:51:14.783Z,28.4
2018-04-10T01:52:16.428Z,31.1
2018-04-10T01:53:18.075Z,31.1
2018-04-10T01:54:19.724Z,33.1
2018-04-10T01:55:21.377Z,31.9
2018-04-10T02:01:32.315Z,27.4
2018-04-10T02:02:33.969Z,31.3
2018-04-10T02:03:35.620Z,35.4
2018-04-10T02:04:37.271Z,37.3
2018-04-10T02:05:38.919Z,33.4
2018-04-10T02:06:40.572Z,32.7
2018-04-10T02:07:42.208Z,32.4
2018-04-10T02:08:43.864Z,32.9
2018-04-10T02:09:45.515Z,34.1
2018-04-10T02:10:47.202Z,32.7
2018-04-10T02:11:48.862Z,32.5
2018-04-10T02:12:50.510Z,34.0
2018-04-10T02:13:52.166Z,34.3
2018-04-10T02:14:53.820Z,38.3
2018-04-10T02:15:55.492Z,37.1
2018-04-10T02:16:57.154Z,32.6
2018-04-10T02:17:58.819Z,41.3
2018-04-10T02:19:00.476Z,35.8
2018-04-10T02:20:02.132Z,32.9
2018-04-10T02:21:03.778Z,35.4
2018-04-10T02:22:05.436Z,31.2
2018-04-10T02:23:07.094Z,35.2
2018-04-10T02:24:08.748Z,35.5
2018-04-10T02:25:10.422Z,32.2
2018-04-10T02:26:12.058Z,35.0
2018-04-10T02:27:13.706Z,35.7
2018-04-10T02:28:15.363Z,31.6
2018-04-10T02:29:17.030Z,38.7
2018-04-10T02:30:18.695Z,32.1
2018-04-10T02:31:20.359Z,34.8
2018-04-10T02:32:22.007Z,32.1
2018-04-10T02:33:23.664Z,31.4
2018-04-10T02:34:25.331Z,32.6
2018-04-10T02:35:26.967Z,30.0
2018-04-10T02:36:28.622Z,30.5
2018-04-10T02:37:30.278Z,30.4
2018-04-10T02:38:31.943Z,34.0
2018-04-10T02:39:33.586Z,33.0
2018-04-10T02:40:35.247Z,36.8
2018-04-10T02:41:36.894Z,32.8
2018-04-10T02:42:38.555Z,39.3
2018-04-10T02:43:40.214Z,37.1
2018-04-10T02:44:41.867Z,38.9
2018-04-10T02:45:43.520Z,28.9
2018-04-10T02:46:45.180Z,32.2
2018-04-10T02:47:46.828Z,33.4
2018-04-10T02:48:48.490Z,32.4
2018-04-10T02:49:50.139Z,37.0
2018-04-10T02:50:51.789Z,32.8
2018-04-10T02:51:53.450Z,34.3
2018-04-10T02:52:55.105Z,32.2
2018-04-10T02:53:56.765Z,33.7
2018-04-10T02:54:58.425Z,33.6
2018-04-10T02:56:00.081Z,36.7
2018-04-10T02:57:01.742Z,33.9
2018-04-10T02:58:03.393Z,33.8
2018-04-10T02:59:05.053Z,31.4
2018-04-10T03:00:06.707Z,29.7
2018-04-10T03:01:08.354Z,31.9
2018-04-10T03:02:10.011Z,31.6
2018-04-10T03:03:11.729Z,29.2
2018-04-10T03:04:13.376Z,33.1
2018-04-10T03:05:15.035Z,33.1
2018-04-10T03:06:16.694Z,31.8
2018-04-10T03:07:18.354Z,32.0
2018-04-10T03:08:20.015Z,30.4
2018-04-10T03:09:21.665Z,35.2
2018-04-10T03:10:23.323Z,34.4
2018-04-10T03:11:24.978Z,34.5
2018-04-10T03:12:26.642Z,36.0
2018-04-10T03:13:28.294Z,32.4
2018-04-10T03:14:29.955Z,35.2
2018-04-10T03:15:31.603Z,31.7
2018-04-10T03:16:33.265Z,29.0
2018-04-10T03:17:34.926Z,34.7
2018-04-10T03:18:36.581Z,43.5
2018-04-10T03:19:38.237Z,35.1
2018-04-10T03:20:39.899Z,35.4
2018-04-10T03:21:41.550Z,33.8
2018-04-10T03:22:43.204Z,34.9
2018-04-10T03:23:44.850Z,34.8
2018-04-10T03:24:46.514Z,35.7
2018-04-10T03:25:48.177Z,38.5
2018-04-10T03:26:49.826Z,33.6
2018-04-10T03:27:51.483Z,32.8
2018-04-10T03:28:53.137Z,34.2
2018-04-10T03:29:54.800Z,35.1
2018-04-10T03:30:56.452Z,35.9
2018-04-10T03:31:58.112Z,33.5
2018-04-10T03:32:59.762Z,31.3
2018-04-10T03:34:01.423Z,35.1
2018-04-10T03:35:03.074Z,32.2
2018-04-10T03:36:04.738Z,36.9
2018-04-10T03:37:06.401Z,34.2
2018-04-10T03:38:08.075Z,34.0
2018-04-10T03:39:09.728Z,36.0
2018-04-10T03:40:11.377Z,34.5
2018-04-10T03:41:13.038Z,30.9
2018-04-10T03:42:14.696Z,35.4
2018-04-10T03:43:16.349Z,34.4
2018-04-10T03:44:18.035Z,33.3
2018-04-10T03:45:19.682Z,35.5
2018-04-10T03:46:21.343Z,33.5
2018-04-10T03:47:22.999Z,34.8
2018-04-10T03:48:24.654Z,30.7
2018-04-10T03:49:26.305Z,31.9
2018-04-10T03:50:27.957Z,35.0
2018-04-10T03:51:29.608Z,32.3
2018-04-10T03:52:31.254Z,32.1
2018-04-10T03:53:32.907Z,32.4
2018-04-10T03:54:34.560Z,35.6
2018-04-10T03:55:36.199Z,30.7
2018-04-10T03:56:37.864Z,30.2
2018-04-10T03:57:39.524Z,32.2
2018-04-10T03:58:41.174Z,32.0
2018-04-10T03:59:42.812Z,35.2
2018-04-10T04:00:44.460Z,37.0
2018-04-10T04:01:46.112Z,33.4
2018-04-10T04:02:47.789Z,34.4
2018-04-10T04:03:49.443Z,32.2
2018-04-10T04:04:51.092Z,34.1
2018-04-10T04:05:52.740Z,36.3
2018-04-10T04:06:54.394Z,32.5
2018-04-10T04:07:56.053Z,30.4
2018-04-10T04:08:57.694Z,31.2
2018-04-10T04:09:59.344Z,30.8
2018-04-10T04:11:00.997Z,31.3
2018-04-10T04:12:02.645Z,32.2
2018-04-10T04:13:04.305Z,31.2
2018-04-10T04:14:05.956Z,29.3
2018-04-10T04:15:07.612Z,30.5
2018-04-10T04:16:09.261Z,33.0
2018-04-10T04:17:10.909Z,33.7
2018-04-10T04:18:12.561Z,30.6
2018-04-10T04:19:14.219Z,30.3
2018-04-10T04:20:15.867Z,37.3
2018-04-10T04:21:17.511Z,35.9
2018-04-10T04:22:19.162Z,30.3
2018-04-10T04:23:20.821Z,31.3
2018-04-10T04:24:22.478Z,31.9
2018-04-10T04:25:24.125Z,35.1
2018-04-10T04:26:25.772Z,28.8
2018-04-10T04:27:27.449Z,34.3
2018-04-10T04:28:29.095Z,28.4
2018-04-10T04:29:30.747Z,30.5
2018-04-10T04:30:32.399Z,34.1
2018-04-10T04:31:34.059Z,30.1
2018-04-10T04:32:35.699Z,29.5
2018-04-10T04:33:37.358Z,33.4
2018-04-10T04:34:39.010Z,32.9
2018-04-10T04:35:40.654Z,33.7
2018-04-10T04:36:42.302Z,28.9
2018-04-10T04:37:43.956Z,40.8
2018-04-10T04:38:45.610Z,36.2
2018-04-10T04:39:47.294Z,31.1
2018-04-10T04:40:48.935Z,34.4
2018-04-10T04:41:50.584Z,33.7
2018-04-10T04:42:52.244Z,36.2
2018-04-10T04:43:53.900Z,33.1
2018-04-10T04:44:55.555Z,37.3
2018-04-10T04:45:57.210Z,32.7
2018-04-10T04:46:58.857Z,31.1
2018-04-10T04:48:00.516Z,33.3
2018-04-10T04:49:02.176Z,30.1
2018-04-10T04:50:03.828Z,36.8
2018-04-10T04:51:05.487Z,32.8
2018-04-10T04:52:07.146Z,40.7
2018-04-10T04:53:08.795Z,30.2
2018-04-10T04:54:10.453Z,31.6
2018-04-10T04:55:12.105Z,35.0
2018-04-10T04:56:13.770Z,35.2
2018-04-10T04:57:15.422Z,31.7
2018-04-10T04:58:17.069Z,31.9
2018-04-10T04:59:18.732Z,33.7
2018-04-10T05:00:20.439Z,37.5
2018-04-10T05:01:22.092Z,32.8
2018-04-10T05:02:23.748Z,33.6
2018-04-10T05:03:25.407Z,29.3
2018-04-10T05:04:27.055Z,33.1
2018-04-10T05:05:28.715Z,37.9
2018-04-10T05:06:30.413Z,32.5
2018-04-10T05:07:32.142Z,40.4
2018-04-10T05:08:33.882Z,43.7
2018-04-10T05:09:35.580Z,37.0
2018-04-10T05:10:37.469Z,32.0
2018-04-10T05:11:39.187Z,33.7
2018-04-10T05:12:41.015Z,31.9
2018-04-10T05:13:42.761Z,36.6
2018-04-10T05:14:44.420Z,36.0
2018-04-10T05:15:46.083Z,33.4
2018-04-10T05:16:47.804Z,33.1
2018-04-10T05:17:49.465Z,32.1
2018-04-10T05:18:51.132Z,28.3
2018-04-10T05:19:52.776Z,33.5
2018-04-10T05:20:54.430Z,36.7
2018-04-10T05:21:56.097Z,30.1
2018-04-10T05:22:57.800Z,32.0
2018-04-10T05:23:59.535Z,39.4
2018-04-10T05:25:01.203Z,38.1
2018-04-10T05:26:02.859Z,29.4
2018-04-10T05:27:04.512Z,31.0
2018-04-10T05:28:06.197Z,29.8
2018-04-10T05:29:07.853Z,31.0
2018-04-10T05:30:09.514Z,27.8
2018-04-10T05:31:11.195Z,28.9
2018-04-10T05:32:12.851Z,30.0
2018-04-10T05:33:14.509Z,34.3
2018-04-10T05:34:16.159Z,32.3
2018-04-10T05:35:17.804Z,31.1
2018-04-10T05:36:19.461Z,32.9
2018-04-10T05:37:21.130Z,34.5
2018-04-10T05:38:22.800Z,30.4
2018-04-10T05:39:24.452Z,31.5
2018-04-10T05:40:26.113Z,35.8
2018-04-10T05:41:27.774Z,33.1
2018-04-10T05:42:29.427Z,31.8
2018-04-10T05:43:31.113Z,27.8
2018-04-10T05:44:32.879Z,25.4
2018-04-10T05:45:34.528Z,30.9
2018-04-10T05:46:36.230Z,29.1
2018-04-10T05:47:37.917Z,30.4
2018-04-10T05:48:39.583Z,29.8
2018-04-10T05:49:41.222Z,29.7
2018-04-10T05:50:42.886Z,26.8
2018-04-10T05:51:44.533Z,30.7
2018-04-10T05:52:46.222Z,38.2
2018-04-10T05:53:47.916Z,38.1
2018-04-10T05:54:49.598Z,28.8
2018-04-10T06:01:12.645Z,30.7
2018-04-10T06:02:14.384Z,36.2
2018-04-10T06:03:17.187Z,24.4
2018-04-10T06:04:18.942Z,29.0
2018-04-10T06:05:21.456Z,26.4
2018-04-10T06:06:23.192Z,31.2
2018-04-10T06:07:24.869Z,31.6
2018-04-10T06:08:26.558Z,30.0
2018-04-10T06:09:28.232Z,31.3
2018-04-10T06:10:30.017Z,27.5
2018-04-10T06:11:31.682Z,30.2
2018-04-10T06:12:33.377Z,33.0
2018-04-10T06:13:35.240Z,32.3
2018-04-10T06:14:36.933Z,35.6
2018-04-10T06:15:38.666Z,30.1
2018-04-10T06:16:40.332Z,24.7
2018-04-10T06:17:42.034Z,39.7
2018-04-10T06:18:43.757Z,57.4
2018-04-10T06:19:45.457Z,30.1
2018-04-10T06:20:47.170Z,28.1
2018-04-10T06:21:48.858Z,34.6
2018-04-10T06:22:50.577Z,29.7
2018-04-10T06:23:52.281Z,34.6
2018-04-10T06:24:54.242Z,32.7
2018-04-10T06:25:55.942Z,28.7
2018-04-10T06:26:57.676Z,26.8
2018-04-10T06:27:59.357Z,20.9
2018-04-10T06:29:01.070Z,19.6
2018-04-10T06:30:02.766Z,22.1
2018-04-10T06:31:04.557Z,25.4
2018-04-10T06:32:06.311Z,21.4
2018-04-10T06:33:07.995Z,21.2
2018-04-10T06:34:09.757Z,18.2
2018-04-10T06:35:11.456Z,20.5
2018-04-10T06:36:13.171Z,25.4
2018-04-10T06:37:14.957Z,20.9
2018-04-10T06:38:16.636Z,22.1
2018-04-10T06:39:18.417Z,20.2
2018-04-10T06:40:20.111Z,17.4
2018-04-10T06:41:21.871Z,23.8
2018-04-10T06:42:23.584Z,25.8
2018-04-10T06:43:25.324Z,23.9
2018-04-10T06:44:27.018Z,22.8
2018-04-10T06:45:28.755Z,21.0
2018-04-10T06:46:30.499Z,23.4
2018-04-10T06:47:32.198Z,19.8
2018-04-10T06:48:33.893Z,19.7
2018-04-10T06:49:35.722Z,24.4
2018-04-10T06:50:37.416Z,22.9
2018-04-10T06:51:39.170Z,20.7
2018-04-10T06:52:40.990Z,20.0
2018-04-10T06:53:42.756Z,28.7
2018-04-10T06:54:44.509Z,22.0
2018-04-10T06:55:46.241Z,27.0
2018-04-10T06:56:47.984Z,22.8
2018-04-10T06:57:49.704Z,22.7
2018-04-10T06:58:51.382Z,19.8
2018-04-10T06:59:53.134Z,23.7
2018-04-10T07:00:54.824Z,26.8
2018-04-10T07:01:56.548Z,26.1
2018-04-10T07:02:58.257Z,20.0
2018-04-10T07:03:59.936Z,21.0
2018-04-10T07:05:01.728Z,23.9
2018-04-10T07:06:03.474Z,19.7
2018-04-10T07:07:05.173Z,20.8
2018-04-10T07:08:06.934Z,27.3
2018-04-10T07:09:08.778Z,23.0
2018-04-10T07:10:10.578Z,22.0
2018-04-10T07:11:12.437Z,21.0
2018-04-10T07:12:14.213Z,21.9
2018-04-10T07:13:16.051Z,19.4
2018-04-10T07:14:17.857Z,23.1
2018-04-10T07:15:19.601Z,17.0
2018-04-10T07:16:21.395Z,16.2
2018-04-10T07:17:23.230Z,17.5
2018-04-10T07:18:25.065Z,18.4
2018-04-10T07:19:26.957Z,19.5
2018-04-10T07:20:28.762Z,17.9
2018-04-10T07:21:30.586Z,19.6
2018-04-10T07:22:32.425Z,20.1
2018-04-10T07:23:34.225Z,16.8
2018-04-10T07:24:36.080Z,22.3
2018-04-10T07:25:37.891Z,18.9
2018-04-10T07:26:39.783Z,25.7
2018-04-10T07:27:41.690Z,24.8
2018-04-10T07:28:43.516Z,27.7
2018-04-10T07:29:45.394Z,19.7
2018-04-10T07:30:47.251Z,20.9
2018-04-10T07:31:49.198Z,20.1
2018-04-10T07:32:51.060Z,19.4
2018-04-10T07:33:52.989Z,17.8
2018-04-10T07:34:54.894Z,17.8
2018-04-10T07:35:56.763Z,20.5
2018-04-10T07:36:58.660Z,19.8
2018-04-10T07:38:00.565Z,18.6
2018-04-10T07:39:02.622Z,24.8
2018-04-10T07:40:04.669Z,21.2
2018-04-10T07:41:06.643Z,28.3
2018-04-10T07:42:08.558Z,24.3
2018-04-10T07:43:10.546Z,29.3
2018-04-10T07:44:12.505Z,29.9
2018-04-10T07:45:14.470Z,26.4
2018-04-10T07:46:16.397Z,22.9
2018-04-10T07:47:18.550Z,21.8
2018-04-10T07:48:20.742Z,20.7
2018-04-10T07:49:22.755Z,22.5
2018-04-10T07:50:24.923Z,25.8
2018-04-10T07:51:27.016Z,20.0
2018-04-10T07:52:29.359Z,22.9
2018-04-10T07:53:31.667Z,18.2
2018-04-10T07:54:33.916Z,18.9
2018-04-10T07:55:36.242Z,19.6
2018-04-10T07:56:38.637Z,20.3
2018-04-10T07:57:40.957Z,22.8
2018-04-10T07:58:43.129Z,19.8
2018-04-10T07:59:45.889Z,18.9
2018-04-10T08:00:48.370Z,16.6
2018-04-10T08:01:50.585Z,17.6
2018-04-10T08:02:52.766Z,15.8
2018-04-10T08:03:54.921Z,18.2
2018-04-10T08:04:57.265Z,21.1
2018-04-10T08:05:59.784Z,15.4
2018-04-10T08:07:02.084Z,17.6
2018-04-10T08:08:04.662Z,16.4
2018-04-10T08:09:07.055Z,19.1
2018-04-10T08:10:09.567Z,17.5
2018-04-10T08:11:11.903Z,21.6
2018-04-10T08:12:14.087Z,16.2
2018-04-10T08:13:16.825Z,16.1
2018-04-10T08:14:19.225Z,16.7
2018-04-10T08:15:21.523Z,20.0
2018-04-10T08:16:23.911Z,20.1
2018-04-10T08:17:26.372Z,20.1
2018-04-10T08:18:28.809Z,18.7
2018-04-10T08:19:31.035Z,18.2
2018-04-10T08:20:33.254Z,21.1
2018-04-10T08:21:35.447Z,20.1
2018-04-10T08:22:37.851Z,20.7
2018-04-10T08:23:40.258Z,20.0
2018-04-10T08:24:42.761Z,15.9
2018-04-10T08:25:45.514Z,19.2
2018-04-10T08:26:48.000Z,19.6
2018-04-10T08:27:50.353Z,17.5
2018-04-10T08:28:52.761Z,18.3
2018-04-10T08:29:55.220Z,22.9
2018-04-10T08:30:57.578Z,20.3
2018-04-10T08:32:00.351Z,17.9
2018-04-10T08:33:02.580Z,16.0
2018-04-10T08:34:04.975Z,19.1
2018-04-10T08:35:07.449Z,20.8
2018-04-10T08:36:09.912Z,15.3
2018-04-10T08:37:12.041Z,19.0
2018-04-10T08:38:14.418Z,16.0
2018-04-10T08:39:17.071Z,14.7
2018-04-10T08:40:19.848Z,15.0
2018-04-10T08:41:22.026Z,16.6
2018-04-10T08:42:24.634Z,14.7
2018-04-10T08:43:27.150Z,15.3
2018-04-10T08:44:29.701Z,14.5
2018-04-10T08:45:32.203Z,19.1
2018-04-10T08:46:34.671Z,15.7
2018-04-10T08:47:37.191Z,12.3
2018-04-10T08:48:39.638Z,12.6
2018-04-10T08:49:42.001Z,12.0
2018-04-10T08:50:44.768Z,13.5
2018-04-10T08:51:47.413Z,13.9
2018-04-10T08:52:49.778Z,11.9
2018-04-10T08:53:52.207Z,11.4
2018-04-10T08:54:54.805Z,14.2
2018-04-10T08:55:56.951Z,10.6
2018-04-10T08:56:59.463Z,13.2
2018-04-10T08:58:01.737Z,9.7
2018-04-10T08:59:04.228Z,11.4
2018-04-10T09:00:06.957Z,8.7
2018-04-10T09:01:09.134Z,9.4
2018-04-10T09:02:11.580Z,10.8
2018-04-10T09:03:13.867Z,13.8
2018-04-10T09:04:16.254Z,12.6
2018-04-10T09:05:18.587Z,10.7
2018-04-10T09:06:20.934Z,10.3
2018-04-10T09:07:23.163Z,12.0
2018-04-10T09:08:25.362Z,10.8
2018-04-10T09:09:27.552Z,12.1
2018-04-10T09:10:29.294Z,13.5
2018-04-10T09:11:30.979Z,11.7
2018-04-10T09:12:32.671Z,11.2
2018-04-10T09:13:34.337Z,10.1
2018-04-10T09:14:36.023Z,11.0
2018-04-10T09:15:37.928Z,11.4
2018-04-10T09:16:39.852Z,8.0
2018-04-10T09:17:41.682Z,10.1
2018-04-10T09:18:43.528Z,7.9
2018-04-10T09:19:45.405Z,8.5
2018-04-10T09:20:47.162Z,8.3
2018-04-10T09:21:48.876Z,9.1
2018-04-10T09:22:50.626Z,7.0
2018-04-10T09:23:52.529Z,7.6
2018-04-10T09:24:54.315Z,8.2
2018-04-10T09:25:56.145Z,4.9
2018-04-10T09:26:58.032Z,4.2
2018-04-10T09:27:59.966Z,4.0
2018-04-10T09:29:01.703Z,3.6
2018-04-10T09:30:03.519Z,3.9
2018-04-10T09:31:05.314Z,6.6
2018-04-10T09:32:07.110Z,6.0
2018-04-10T09:33:09.134Z,4.2
2018-04-10T09:34:10.815Z,4.1
2018-04-10T09:35:12.599Z,4.8
2018-04-10T09:36:14.432Z,3.5
2018-04-10T09:37:16.206Z,2.9
2018-04-10T09:38:17.915Z,3.5
2018-04-10T09:39:19.637Z,3.8
2018-04-10T09:40:21.440Z,4.4
2018-04-10T09:41:23.273Z,3.4
2018-04-10T09:42:24.991Z,1.5
2018-04-10T09:43:26.675Z,2.8
2018-04-10T09:44:28.373Z,4.6
2018-04-10T09:45:30.088Z,2.4
2018-04-10T09:46:31.792Z,7.9
2018-04-10T09:47:33.531Z,7.1
2018-04-10T09:48:35.267Z,4.7
2018-04-10T09:49:36.941Z,1.9
2018-04-10T09:50:38.861Z,3.9
2018-04-10T09:51:40.682Z,2.5
2018-04-10T09:52:42.382Z,1.8
2018-04-10T09:53:44.092Z,3.1
2018-04-10T09:54:45.894Z,4.7
2018-04-10T09:55:47.673Z,2.4
2018-04-10T10:02:01.777Z,1.9
2018-04-10T10:03:03.464Z,1.8
2018-04-10T10:04:55.373Z,4.4
2018-04-10T10:05:57.086Z,5.5
2018-04-10T10:07:49.013Z,2.4
2018-04-10T10:08:50.780Z,2.3
2018-04-10T10:10:42.730Z,4.2
2018-04-10T10:11:44.404Z,6.0
2018-04-10T10:12:46.143Z,3.3
2018-04-10T10:13:47.812Z,3.3
2018-04-10T10:14:49.550Z,3.8
2018-04-10T10:15:51.231Z,3.0
2018-04-10T10:16:52.921Z,3.8
2018-04-10T10:17:54.622Z,4.1
2018-04-10T10:18:56.315Z,4.1
2018-04-10T10:19:58.028Z,4.4
2018-04-10T10:20:59.690Z,3.4
2018-04-10T10:22:01.375Z,5.1
2018-04-10T10:23:03.058Z,2.1
2018-04-10T10:24:04.734Z,2.9
2018-04-10T10:25:06.415Z,4.6
2018-04-10T10:26:08.097Z,3.6
2018-04-10T10:27:09.772Z,4.6
2018-04-10T10:28:11.464Z,2.3
2018-04-10T10:29:13.154Z,7.9
2018-04-10T10:30:14.846Z,2.6
2018-04-10T10:31:16.554Z,4.4
2018-04-10T10:32:18.270Z,2.2
2018-04-10T10:33:19.952Z,3.4
2018-04-10T10:34:21.685Z,2.4
2018-04-10T10:35:23.364Z,2.3
2018-04-10T10:36:25.061Z,3.5
2018-04-10T10:37:26.732Z,4.7
2018-04-10T10:38:28.430Z,3.5
2018-04-10T10:39:30.153Z,2.8
2018-04-10T10:40:31.840Z,4.7
2018-04-10T10:41:33.522Z,3.3
2018-04-10T10:42:35.249Z,2.9
2018-04-10T10:43:36.934Z,4.1
2018-04-10T10:44:38.645Z,4.3
2018-04-10T10:45:40.341Z,3.6
2018-04-10T10:46:42.030Z,4.9
2018-04-10T10:47:43.738Z,2.2
2018-04-10T10:48:45.424Z,3.0
2018-04-10T10:49:47.139Z,4.1
2018-04-10T10:50:49.119Z,3.3
2018-04-10T10:51:50.801Z,5.4
2018-04-10T10:52:52.489Z,3.2
2018-04-10T10:53:54.774Z,6.6
2018-04-10T10:54:56.402Z,3.6
2018-04-10T10:55:58.144Z,6.9
2018-04-10T10:56:59.858Z,5.3
2018-04-10T10:58:01.574Z,3.0
2018-04-10T10:59:03.240Z,6.6
2018-04-10T11:00:04.926Z,3.3
2018-04-10T11:01:06.622Z,5.1
2018-04-10T11:02:08.290Z,2.6
2018-04-10T11:03:10.013Z,4.8
2018-04-10T11:04:11.712Z,5.1
2018-04-10T11:05:13.398Z,7.1
2018-04-10T11:06:15.084Z,3.7
2018-04-10T11:07:16.763Z,4.8
2018-04-10T11:08:18.456Z,5.5
2018-04-10T11:09:20.125Z,4.9
2018-04-10T11:10:21.891Z,4.6
2018-04-10T11:11:23.603Z,6.4
2018-04-10T11:12:25.280Z,3.4
2018-04-10T11:13:26.967Z,4.2
2018-04-10T11:14:28.651Z,3.5
2018-04-10T11:15:30.328Z,4.3
2018-04-10T11:16:32.023Z,4.1
2018-04-10T11:17:33.707Z,3.0
2018-04-10T11:18:35.402Z,5.9
2018-04-10T11:19:37.084Z,2.7
2018-04-10T11:20:38.796Z,4.4
2018-04-10T11:21:40.496Z,5.7
2018-04-10T11:22:42.176Z,4.7
2018-04-10T11:23:43.856Z,3.4
2018-04-10T11:24:45.540Z,6.4
2018-04-10T11:25:47.247Z,4.3
2018-04-10T11:26:48.932Z,4.6
2018-04-10T11:27:50.606Z,4.4
2018-04-10T11:28:52.288Z,6.1
2018-04-10T11:29:54.017Z,5.8
2018-04-10T11:30:55.665Z,5.8
2018-04-10T11:31:57.340Z,7.0
2018-04-10T11:32:59.015Z,7.0
2018-04-10T11:34:00.695Z,6.3
2018-04-10T11:35:02.375Z,10.1
2018-04-10T11:36:04.058Z,8.7
2018-04-10T11:37:05.767Z,6.7
2018-04-10T11:38:07.437Z,7.3
2018-04-10T11:39:09.155Z,9.1
2018-04-10T11:40:10.791Z,9.1
2018-04-10T11:41:12.471Z,9.3
2018-04-10T11:42:14.157Z,7.4
2018-04-10T11:43:15.831Z,6.3
2018-04-10T11:44:17.507Z,10.6
2018-04-10T11:45:19.184Z,7.7
2018-04-10T11:46:20.854Z,5.3
2018-04-10T11:47:22.553Z,5.5
2018-04-10T11:48:24.229Z,4.9
2018-04-10T11:49:25.907Z,7.1
2018-04-10T11:50:27.586Z,5.3
2018-04-10T11:51:29.310Z,5.2
2018-04-10T11:52:31.028Z,5.8
2018-04-10T11:53:32.709Z,4.8
2018-04-10T11:54:34.385Z,9.1
2018-04-10T11:55:36.079Z,7.1
2018-04-10T11:56:37.761Z,5.3
2018-04-10T11:57:39.444Z,6.1
2018-04-10T11:58:41.131Z,5.9
2018-04-10T11:59:42.791Z,6.4
2018-04-10T12:00:44.526Z,3.9
2018-04-10T12:01:46.197Z,7.5
2018-04-10T12:02:47.922Z,7.1
2018-04-10T12:03:49.604Z,8.2
2018-04-10T12:04:51.310Z,5.6
2018-04-10T12:05:53.306Z,5.0
2018-04-10T12:06:55.015Z,6.6
2018-04-10T12:07:56.690Z,7.7
2018-04-10T12:08:59.825Z,7.7
2018-04-10T12:10:01.531Z,4.5
2018-04-10T12:11:03.231Z,8.8
2018-04-10T12:12:05.034Z,4.8
2018-04-10T12:13:06.805Z,5.3
2018-04-10T12:14:08.512Z,6.7
2018-04-10T12:15:10.185Z,7.7
2018-04-10T12:16:11.863Z,5.1
2018-04-10T12:17:13.727Z,6.2
2018-04-10T12:18:15.411Z,7.0
2018-04-10T12:19:17.160Z,5.5
2018-04-10T12:20:18.829Z,6.6
2018-04-10T12:21:20.537Z,6.2
2018-04-10T12:22:22.231Z,8.9
2018-04-10T12:23:23.906Z,8.5
2018-04-10T12:24:25.601Z,7.6
2018-04-10T12:25:27.285Z,4.8
2018-04-10T12:26:28.951Z,6.8
2018-04-10T12:27:30.628Z,6.5
2018-04-10T12:28:32.322Z,9.7
2018-04-10T12:29:33.992Z,6.5
2018-04-10T12:30:35.703Z,9.2
2018-04-10T12:31:42.749Z,7.5
2018-04-10T12:32:44.462Z,8.8
2018-04-10T12:33:46.160Z,5.4
2018-04-10T12:34:47.849Z,8.0
2018-04-10T12:35:49.525Z,7.6
2018-04-10T12:36:51.297Z,5.8
2018-04-10T12:37:52.983Z,6.4
2018-04-10T12:38:54.683Z,7.7
2018-04-10T12:39:56.343Z,6.9
2018-04-10T12:40:58.033Z,7.4
2018-04-10T12:41:59.706Z,6.1
2018-04-10T12:43:01.370Z,5.8
2018-04-10T12:44:03.048Z,6.8
2018-04-10T12:45:04.732Z,7.2
2018-04-10T12:46:06.413Z,6.6
2018-04-10T12:47:08.099Z,5.7
2018-04-10T12:48:09.813Z,5.5
2018-04-10T12:49:11.489Z,4.9
2018-04-10T12:50:13.166Z,8.7
2018-04-10T12:51:14.836Z,5.2
2018-04-10T12:52:16.502Z,7.7
2018-04-10T12:53:18.179Z,5.8
2018-04-10T12:54:19.859Z,6.0
2018-04-10T12:55:21.533Z,7.9
2018-04-10T12:56:23.222Z,5.9
2018-04-10T12:57:24.896Z,6.3
2018-04-10T12:58:26.587Z,8.7
2018-04-10T12:59:28.258Z,6.1
2018-04-10T13:00:29.935Z,13.0
2018-04-10T13:01:31.606Z,8.9
2018-04-10T13:02:33.305Z,9.3
2018-04-10T13:03:34.983Z,6.7
2018-04-10T13:04:36.662Z,6.7
2018-04-10T13:05:38.332Z,11.0
2018-04-10T13:06:40.074Z,11.3
2018-04-10T13:07:41.756Z,9.1
2018-04-10T13:08:43.421Z,8.7
2018-04-10T13:09:45.095Z,6.3
2018-04-10T13:10:46.779Z,6.7
2018-04-10T13:11:48.461Z,7.3
2018-04-10T13:12:50.130Z,4.8
2018-04-10T13:13:51.847Z,5.9
2018-04-10T13:14:53.467Z,8.8
2018-04-10T13:15:55.139Z,9.4
2018-04-10T13:16:56.820Z,8.0
2018-04-10T13:17:58.507Z,10.1
2018-04-10T13:19:00.227Z,7.0
2018-04-10T13:20:01.922Z,10.8
2018-04-10T13:21:03.603Z,9.4
2018-04-10T13:22:05.274Z,9.0
2018-04-10T13:23:06.944Z,10.7
2018-04-10T13:24:08.621Z,9.9
2018-04-10T13:25:10.305Z,9.5
2018-04-10T13:26:11.974Z,15.1
2018-04-10T13:27:13.665Z,9.2
2018-04-10T13:28:15.330Z,10.9
2018-04-10T13:29:17.012Z,10.3
2018-04-10T13:30:18.679Z,14.4
2018-04-10T13:31:20.348Z,9.0
2018-04-10T13:32:22.028Z,8.6
2018-04-10T13:33:23.696Z,12.9
2018-04-10T13:34:25.369Z,10.7
2018-04-10T13:35:27.040Z,14.1
2018-04-10T13:36:28.711Z,15.0
2018-04-10T13:37:30.385Z,16.5
2018-04-10T13:38:32.057Z,15.6
2018-04-10T13:39:33.735Z,17.2
2018-04-10T13:40:35.429Z,14.8
2018-04-10T13:41:37.114Z,15.3
2018-04-10T13:42:38.796Z,16.0
2018-04-10T13:43:40.462Z,17.7
2018-04-10T13:44:42.126Z,17.3
2018-04-10T13:45:43.810Z,16.5
2018-04-10T13:46:45.487Z,18.9
2018-04-10T13:47:47.192Z,18.9
2018-04-10T13:48:48.858Z,20.8
2018-04-10T13:49:50.563Z,19.3
2018-04-10T13:50:52.242Z,19.0
2018-04-10T13:51:53.946Z,20.4
2018-04-10T13:52:55.617Z,20.1
2018-04-10T13:53:57.292Z,19.0
2018-04-10T13:54:58.961Z,16.5
2018-04-10T14:01:32.466Z,18.7
2018-04-10T14:02:34.142Z,18.7
2018-04-10T14:04:26.027Z,22.3
2018-04-10T14:05:27.701Z,21.6
2018-04-10T14:06:29.375Z,20.1
2018-04-10T14:07:31.041Z,21.0
2018-04-10T14:08:32.701Z,22.9
2018-04-10T14:09:34.378Z,22.6
2018-04-10T14:10:36.055Z,21.7
2018-04-10T14:11:37.744Z,23.7
2018-04-10T14:12:39.412Z,20.4
2018-04-10T14:13:41.077Z,24.3
2018-04-10T14:14:42.756Z,21.6